Time;durP1;ratioP1;P1;durP2;ratioP2;P2;SDS_P1;SDS_P2;PMS_P1;PMS_P2;Temp;Humidity;BMP_temperature;BMP_pressure;BME280_temperature;BME280_humidity;BME280_pressure;Samples;Min_cycle;Max_cycle;Signal;HPM_P1;HPM_P2
2021/05/06 00:01:10;;;;;;;12.57;4.55;;;;;;;5.11;79.33;100349.47;5028594;28;20068;-79
2021/05/06 00:34:09;;;;;;;15.80;8.02;;;;;;;4.97;85.79;100304.69;5028629;28;20557;-79
2021/05/06 00:36:35;;;;;;;17.38;7.78;;;;;;;4.88;86.36;100310.84;5025246;28;20128;-79
2021/05/06 00:39:25;;;;;;;16.27;7.65;;;;;;;4.84;86.78;100315.59;5028815;28;20466;-79
2021/05/06 01:06:06;;;;;;;16.95;10.98;;;;;;;4.86;89.55;100318.09;5043571;28;20081;-79
2021/05/06 01:08:38;;;;;;;14.68;9.85;;;;;;;4.78;89.88;100316.16;5043346;28;20398;-79
2021/05/06 01:13:31;;;;;;;24.13;13.40;;;;;;;4.84;90.07;100315.59;5046086;28;20094;-80
2021/05/06 01:15:56;;;;;;;18.80;11.82;;;;;;;4.87;89.33;100306.50;5043652;28;20064;-80
2021/05/06 01:18:22;;;;;;;18.85;11.93;;;;;;;4.86;90.11;100307.47;5040355;28;20053;-79
2021/05/06 01:20:51;;;;;;;19.85;12.18;;;;;;;4.84;89.72;100315.59;5018626;28;20064;-79
2021/05/06 01:23:22;;;;;;;18.52;10.15;;;;;;;4.75;90.38;100303.97;5020885;28;20064;-79
2021/05/06 01:26:29;;;;;;;16.65;10.88;;;;;;;4.71;90.42;100315.00;5033657;28;20040;-79
2021/05/06 01:28:41;;;;;;;19.88;9.02;;;;;;;4.55;92.51;100312.06;5002034;28;20128;-79
2021/05/06 01:31:11;;;;;;;15.15;9.73;;;;;;;4.58;91.42;100315.28;5043056;28;20545;-79
2021/05/06 01:33:45;;;;;;;12.35;8.15;;;;;;;4.38;93.04;100311.75;5042652;28;20090;-79
2021/05/06 01:36:21;;;;;;;18.40;8.43;;;;;;;4.34;93.03;100312.16;5045532;28;20485;-79
2021/05/06 01:47:11;;;;;;;17.77;9.82;;;;;;;4.23;94.18;100300.66;5023231;28;20037;-79
2021/05/06 02:00:25;;;;;;;20.45;12.77;;;;;;;4.03;97.14;100294.44;5050346;28;20075;-79
2021/05/06 02:02:51;;;;;;;17.83;12.63;;;;;;;4.01;97.75;100300.88;5044565;28;20033;-79
2021/05/06 02:05:17;;;;;;;17.70;13.57;;;;;;;4.03;97.65;100298.94;5053717;28;20527;-78
2021/05/06 02:07:44;;;;;;;20.52;15.85;;;;;;;3.99;97.95;100293.03;5052387;28;20048;-78
2021/05/06 02:10:17;;;;;;;22.20;15.07;;;;;;;3.92;99.56;100288.41;5043212;28;20175;-78
2021/05/06 02:12:44;;;;;;;24.63;17.20;;;;;;;3.93;98.73;100290.91;5049940;28;20412;-78
2021/05/06 02:15:18;;;;;;;22.60;14.93;;;;;;;3.86;99.49;100288.94;5051004;28;20041;-78
2021/05/06 02:17:45;;;;;;;21.23;16.23;;;;;;;3.88;99.65;100285.16;5031059;28;20489;-79
2021/05/06 02:20:11;;;;;;;20.67;14.55;;;;;;;3.81;100.00;100284.03;5026845;28;20047;-79
2021/05/06 02:22:37;;;;;;;21.73;15.45;;;;;;;3.83;100.00;100285.56;5015689;28;20087;-79
2021/05/06 02:25:04;;;;;;;23.33;18.40;;;;;;;3.87;99.77;100282.66;5030962;28;20072;-79
2021/05/06 02:27:30;;;;;;;21.70;15.30;;;;;;;3.82;100.00;100281.22;5049594;28;20048;-79
2021/05/06 02:29:55;;;;;;;26.00;17.83;;;;;;;3.88;100.00;100279.84;5046006;28;20056;-79
2021/05/06 02:32:21;;;;;;;27.45;19.95;;;;;;;3.95;99.35;100272.22;5035687;28;20045;-79
2021/05/06 02:34:46;;;;;;;26.13;17.73;;;;;;;3.91;100.00;100278.75;5011315;28;20650;-79
2021/05/06 02:37:13;;;;;;;23.00;18.10;;;;;;;3.90;100.00;100277.06;5030816;28;20087;-79
2021/05/06 02:39:38;;;;;;;27.58;20.70;;;;;;;3.96;100.00;100272.06;5032915;28;20117;-79
2021/05/06 02:42:04;;;;;;;28.33;18.35;;;;;;;3.84;100.00;100273.97;5030636;28;20127;-78
2021/05/06 02:44:33;;;;;;;22.10;15.60;;;;;;;3.74;100.00;100273.09;5027382;28;20087;-79
2021/05/06 02:46:59;;;;;;;28.75;21.08;;;;;;;3.79;100.00;100273.53;5024800;28;20512;-79
2021/05/06 02:49:24;;;;;;;27.50;19.90;;;;;;;3.80;100.00;100271.72;5026448;28;20128;-79
2021/05/06 02:51:53;;;;;;;29.92;23.83;;;;;;;3.87;100.00;100267.56;5026412;28;20038;-79
2021/05/06 02:54:20;;;;;;;30.77;20.50;;;;;;;3.89;100.00;100267.44;5027356;28;20037;-79
2021/05/06 02:57:09;;;;;;;25.05;15.93;;;;;;;3.73;100.00;100258.13;5025569;28;20075;-79
2021/05/06 03:04:48;;;;;;;24.98;17.77;;;;;;;3.89;100.00;100249.69;5045819;28;20056;-79
2021/05/06 03:07:18;;;;;;;20.30;16.63;;;;;;;3.91;100.00;100258.34;5030974;28;20417;-79
2021/05/06 03:22:53;;;;;;;18.80;14.77;;;;;;;3.30;99.77;100253.88;5046869;28;20040;-79
2021/05/06 03:25:20;;;;;;;22.20;15.52;;;;;;;3.22;100.00;100251.00;5022975;28;20053;-79
2021/05/06 03:46:44;;;;;;;28.05;21.30;;;;;;;3.18;100.00;100233.69;5015619;28;20049;-78
2021/05/06 04:21:42;;;;;;;33.35;23.33;;;;;;;3.06;100.00;100230.28;5046065;28;20036;-79
2021/05/06 04:27:04;;;;;;;28.92;22.13;;;;;;;3.06;100.00;100230.28;5046838;28;20051;-78
2021/05/06 04:37:36;;;;;;;34.00;24.73;;;;;;;3.07;100.00;100236.41;5013565;28;20073;-78
2021/05/06 04:55:56;;;;;;;32.60;23.77;;;;;;;3.26;100.00;100249.81;5036952;28;20037;-79
2021/05/06 05:06:29;;;;;;;30.67;22.02;;;;;;;3.41;100.00;100244.16;5027835;28;20037;-78
2021/05/06 05:27:23;;;;;;;26.20;19.33;;;;;;;3.87;100.00;100242.81;5034958;28;20041;-78
2021/05/06 05:29:50;;;;;;;25.45;18.15;;;;;;;3.80;100.00;100242.53;5027149;28;20044;-79
2021/05/06 05:32:15;;;;;;;29.35;23.50;;;;;;;4.00;100.00;100248.72;5026448;28;20124;-79
2021/05/06 05:34:44;;;;;;;28.52;22.70;;;;;;;4.10;100.00;100246.13;5028858;28;20156;-79
2021/05/06 05:37:16;;;;;;;26.65;17.25;;;;;;;4.00;100.00;100249.59;5025869;28;20478;-78
2021/05/06 05:42:40;;;;;;;27.80;20.58;;;;;;;4.04;100.00;100252.81;5035826;28;20060;-78
2021/05/06 05:56:34;;;;;;;25.50;20.10;;;;;;;4.13;100.00;100251.97;4957913;28;20039;-78
2021/05/06 05:58:59;;;;;;;25.08;16.90;;;;;;;4.13;100.00;100256.47;5046033;28;20543;-78
2021/05/06 06:01:27;;;;;;;24.67;18.58;;;;;;;4.18;100.00;100257.75;5050406;28;20133;-78
2021/05/06 06:03:52;;;;;;;20.92;14.73;;;;;;;4.13;100.00;100251.97;5051279;28;20471;-78
2021/05/06 06:06:17;;;;;;;25.58;19.23;;;;;;;4.24;100.00;100259.84;5048787;28;20061;-78
2021/05/06 06:08:43;;;;;;;24.80;19.08;;;;;;;4.33;100.00;100255.53;5018805;28;20044;-78
2021/05/06 06:11:08;;;;;;;23.83;16.70;;;;;;;4.35;100.00;100253.59;5033069;28;20049;-78
2021/05/06 06:13:34;;;;;;;25.85;20.02;;;;;;;4.46;100.00;100256.13;5040452;28;20048;-78
2021/05/06 06:21:15;;;;;;;27.23;21.48;;;;;;;4.58;100.00;100262.16;5042399;28;20037;-78
2021/05/06 06:23:41;;;;;;;26.95;21.33;;;;;;;4.62;100.00;100266.19;5048845;28;20048;-78
2021/05/06 06:26:07;;;;;;;26.00;20.15;;;;;;;4.62;100.00;100262.69;5049453;28;20044;-77
2021/05/06 06:28:41;;;;;;;26.60;21.00;;;;;;;4.60;100.00;100262.81;5030330;28;20936;-78
2021/05/06 06:32:10;;;;;;;26.48;19.55;;;;;;;4.64;100.00;100268.72;5030762;28;20041;-78
2021/05/06 06:34:01;;;;;;;29.75;19.48;;;;;;;4.60;100.00;100264.66;5009150;28;20524;-78
2021/05/06 06:36:27;;;;;;;31.05;24.52;;;;;;;4.72;100.00;100264.38;5047176;28;20132;-78
2021/05/06 06:38:53;;;;;;;29.27;20.83;;;;;;;4.76;100.00;100264.94;5050869;28;20033;-78
2021/05/06 06:41:19;;;;;;;29.08;23.45;;;;;;;4.87;100.00;100271.94;5049312;28;20033;-78
2021/05/06 06:43:47;;;;;;;30.50;23.33;;;;;;;4.82;99.96;100268.88;5047312;28;20114;-78
2021/05/06 06:46:12;;;;;;;28.98;19.15;;;;;;;4.81;100.00;100261.88;5047278;28;20063;-78
2021/05/06 06:48:38;;;;;;;29.00;18.35;;;;;;;4.78;100.00;100259.50;4998360;28;20466;-77
2021/05/06 06:51:04;;;;;;;31.20;23.92;;;;;;;4.89;100.00;100264.66;5029054;28;20119;-78
2021/05/06 06:53:29;;;;;;;30.30;21.05;;;;;;;4.91;100.00;100263.53;5043274;28;20044;-78
2021/05/06 06:55:59;;;;;;;34.65;22.42;;;;;;;4.96;100.00;100253.31;5032936;28;20036;-78
2021/05/06 06:58:24;;;;;;;31.80;23.63;;;;;;;5.05;99.06;100256.94;5048919;28;20045;-78
2021/05/06 07:00:50;;;;;;;29.83;21.35;;;;;;;5.02;99.98;100249.25;5050944;28;20028;-77
2021/05/06 07:03:17;;;;;;;31.48;24.05;;;;;;;5.18;98.96;100252.19;5016794;28;20061;-78
2021/05/06 07:05:43;;;;;;;31.60;22.40;;;;;;;5.17;98.41;100255.81;5019847;28;20176;-77
2021/05/06 07:08:18;;;;;;;33.05;21.65;;;;;;;5.15;97.12;100257.78;5018693;28;20196;-78
2021/05/06 07:10:45;;;;;;;33.72;26.55;;;;;;;5.27;97.21;100253.16;5021649;28;20560;-78
2021/05/06 07:13:11;;;;;;;29.45;22.30;;;;;;;5.31;97.25;100253.69;5021349;28;20064;-78
2021/05/06 07:15:37;;;;;;;32.25;24.67;;;;;;;5.38;95.82;100250.31;5019367;28;20892;-78
2021/05/06 07:18:03;;;;;;;31.40;21.65;;;;;;;5.32;96.03;100245.59;5024604;28;20041;-78
2021/05/06 07:20:28;;;;;;;33.63;23.05;;;;;;;5.29;95.23;100250.34;5024554;28;20044;-78
2021/05/06 07:22:55;;;;;;;31.23;25.45;;;;;;;5.31;96.69;100253.69;5027157;28;20389;-78
2021/05/06 07:25:21;;;;;;;32.08;24.85;;;;;;;5.46;96.91;100246.09;5017157;28;20456;-78
2021/05/06 07:27:47;;;;;;;31.13;23.45;;;;;;;5.53;95.88;100256.03;4996495;28;20086;-78
2021/05/06 07:30:12;;;;;;;33.17;25.77;;;;;;;5.64;95.69;100255.84;5016326;28;20129;-78
2021/05/06 07:32:38;;;;;;;32.35;25.27;;;;;;;5.68;94.64;100255.56;5029438;28;20041;-78
2021/05/06 07:35:04;;;;;;;27.77;21.08;;;;;;;5.61;93.85;100255.28;5017492;28;20033;-78
2021/05/06 07:37:30;;;;;;;31.95;24.50;;;;;;;5.70;95.28;100259.75;5028279;28;20046;-78
2021/05/06 07:39:55;;;;;;;25.65;19.60;;;;;;;5.62;93.33;100263.13;5017629;28;20534;-78
2021/05/06 07:42:21;;;;;;;32.92;24.83;;;;;;;5.66;93.58;100263.69;5022660;28;20325;-78
2021/05/06 07:44:46;;;;;;;28.80;21.67;;;;;;;5.85;94.27;100257.44;5019738;28;20095;-78
2021/05/06 07:47:12;;;;;;;29.50;22.00;;;;;;;6.00;93.13;100265.81;5022112;28;20128;-78
2021/05/06 07:49:38;;;;;;;29.33;21.60;;;;;;;6.01;93.17;100259.50;5037929;28;20037;-78
2021/05/06 07:52:05;;;;;;;27.77;21.90;;;;;;;6.10;92.39;100262.13;5042762;28;20080;-78
2021/05/06 07:54:31;;;;;;;27.27;22.30;;;;;;;6.22;91.93;100254.78;5038326;28;20037;-78
2021/05/06 07:56:58;;;;;;;27.63;20.95;;;;;;;6.30;91.67;100262.00;5044118;28;20742;-78
2021/05/06 07:59:24;;;;;;;25.42;20.75;;;;;;;6.35;90.34;100261.56;5022976;28;20049;-78
2021/05/06 08:01:50;;;;;;;25.85;19.85;;;;;;;6.31;89.53;100263.69;5026051;28;20037;-78
2021/05/06 08:04:15;;;;;;;26.13;20.88;;;;;;;6.33;90.25;100256.41;5009035;28;20049;-78
2021/05/06 08:06:40;;;;;;;24.35;18.13;;;;;;;6.41;87.76;100253.78;5029319;28;20041;-78
2021/05/06 08:09:06;;;;;;;24.73;19.60;;;;;;;6.46;88.23;100254.19;5046183;28;20124;-78
2021/05/06 08:11:31;;;;;;;24.83;20.23;;;;;;;6.53;88.26;100257.94;5048096;28;20122;-78
2021/05/06 08:13:57;;;;;;;25.80;18.27;;;;;;;6.51;87.82;100259.06;5030584;28;20481;-78
2021/05/06 08:16:22;;;;;;;21.73;16.40;;;;;;;6.51;86.88;100256.41;5030213;28;22058;-78
2021/05/06 08:18:48;;;;;;;20.42;16.85;;;;;;;6.48;86.38;100256.72;5041898;28;20680;-78
2021/05/06 08:21:13;;;;;;;21.67;16.17;;;;;;;6.51;87.01;100265.25;5029853;28;20045;-78
2021/05/06 08:23:40;;;;;;;21.35;17.08;;;;;;;6.60;85.49;100274.16;5025833;28;20044;-78
2021/05/06 08:26:05;;;;;;;21.17;14.07;;;;;;;6.66;84.19;100268.22;5040439;28;20064;-78
2021/05/06 08:28:31;;;;;;;19.42;15.38;;;;;;;6.76;84.32;100263.66;5049319;28;20430;-78
2021/05/06 08:30:56;;;;;;;20.08;14.15;;;;;;;6.86;82.51;100266.25;5045530;28;20040;-78
2021/05/06 08:33:22;;;;;;;25.42;17.48;;;;;;;6.99;84.22;100264.03;5031214;28;20052;-78
2021/05/06 08:35:47;;;;;;;22.58;18.25;;;;;;;7.18;85.00;100263.00;5036748;28;20045;-78
2021/05/06 08:38:12;;;;;;;19.38;14.68;;;;;;;7.18;81.73;100263.00;5043311;28;20037;-78
2021/05/06 08:40:38;;;;;;;23.20;15.93;;;;;;;7.27;82.34;100269.25;5035225;28;20516;-78
2021/05/06 08:43:08;;;;;;;19.42;14.68;;;;;;;7.28;81.15;100270.94;5034581;28;20037;-78
2021/05/06 08:45:41;;;;;;;18.17;13.75;;;;;;;7.30;79.61;100270.75;5015206;28;20049;-78
2021/05/06 08:48:07;;;;;;;21.88;16.23;;;;;;;7.23;80.15;100266.06;5025157;28;20399;-78
2021/05/06 08:50:32;;;;;;;19.67;14.40;;;;;;;7.45;79.59;100267.38;5013057;28;20045;-78
2021/05/06 08:52:59;;;;;;;19.15;14.43;;;;;;;7.54;79.56;100268.28;5020668;28;20103;-78
2021/05/06 08:55:25;;;;;;;14.95;11.27;;;;;;;7.68;77.06;100269.50;5021174;28;20041;-78
2021/05/06 08:57:50;;;;;;;20.33;14.40;;;;;;;7.64;77.38;100266.31;5029113;28;20536;-78
2021/05/06 09:00:16;;;;;;;22.13;14.93;;;;;;;7.63;78.11;100259.31;5040180;28;20049;-78
2021/05/06 09:02:48;;;;;;;16.40;12.35;;;;;;;7.58;77.92;100258.94;5045706;28;20041;-78
2021/05/06 09:05:14;;;;;;;16.00;12.52;;;;;;;7.49;76.41;100261.72;5044828;28;20037;-78
2021/05/06 09:07:46;;;;;;;16.63;12.00;;;;;;;7.64;78.41;100252.97;5046002;28;20045;-78
2021/05/06 09:10:34;;;;;;;16.25;13.02;;;;;;;7.73;77.35;100256.50;5048518;28;20056;-78
2021/05/06 09:13:00;;;;;;;16.00;13.13;;;;;;;7.74;77.09;100244.84;5045869;28;20053;-78
2021/05/06 09:15:26;;;;;;;12.65;10.68;;;;;;;7.74;73.91;100246.66;5046750;28;20041;-78
2021/05/06 09:17:53;;;;;;;14.68;10.70;;;;;;;7.72;73.40;100238.81;5046522;28;20044;-78
2021/05/06 09:20:26;;;;;;;12.95;9.80;;;;;;;7.70;74.00;100235.47;5051612;28;21581;-78
2021/05/06 09:22:55;;;;;;;14.25;11.55;;;;;;;7.69;75.78;100239.16;5035061;28;20037;-78
2021/05/06 09:25:24;;;;;;;13.40;10.88;;;;;;;7.51;73.15;100230.34;5049398;28;20430;-79
2021/05/06 09:28:09;;;;;;;12.23;10.88;;;;;;;7.52;73.45;100232.03;5050606;28;20041;-78
2021/05/06 09:30:49;;;;;;;12.52;8.80;;;;;;;7.70;74.76;100232.78;5051370;28;20048;-78
2021/05/06 09:33:15;;;;;;;9.82;7.95;;;;;;;7.76;71.36;100232.16;5050322;28;20041;-78
2021/05/06 09:35:46;;;;;;;10.77;8.63;;;;;;;7.90;71.35;100223.53;5015261;28;21442;-79
2021/05/06 09:38:25;;;;;;;11.32;7.60;;;;;;;7.91;69.25;100225.22;5048167;28;20041;-78
2021/05/06 09:40:51;;;;;;;10.40;7.43;;;;;;;7.93;69.20;100218.88;5043071;28;20083;-78
2021/05/06 09:43:29;;;;;;;9.75;8.45;;;;;;;8.11;71.04;100222.28;5033145;28;20045;-78
2021/05/06 09:45:56;;;;;;;13.50;9.38;;;;;;;8.24;69.20;100228.00;5024501;28;20999;-79
2021/05/06 09:48:22;;;;;;;10.38;8.38;;;;;;;8.39;68.77;100227.41;5023778;28;20096;-79
2021/05/06 09:51:00;;;;;;;14.95;9.85;;;;;;;8.57;68.10;100225.41;5031802;28;20106;-79
2021/05/06 09:53:29;;;;;;;11.50;9.52;;;;;;;8.46;67.99;100220.38;5028787;28;20110;-79
2021/05/06 09:55:57;;;;;;;12.63;9.60;;;;;;;8.49;69.28;100220.09;5022887;28;20041;-79
2021/05/06 09:58:31;;;;;;;13.18;8.55;;;;;;;8.70;68.39;100220.44;5020264;28;20030;-79
2021/05/06 10:00:57;;;;;;;14.23;11.35;;;;;;;8.85;71.56;100215.25;5028344;28;20041;-79
2021/05/06 10:03:31;;;;;;;12.38;9.40;;;;;;;8.84;68.21;100213.59;5031222;28;20033;-79
2021/05/06 10:05:56;;;;;;;10.73;8.48;;;;;;;8.77;66.51;100232.13;5032702;28;20075;-79
2021/05/06 10:08:36;;;;;;;10.50;8.43;;;;;;;8.80;64.06;100230.97;5025121;28;20436;-79
2021/05/06 10:11:13;;;;;;;10.98;8.50;;;;;;;8.76;64.16;100227.78;5026350;28;20118;-79
2021/05/06 10:13:43;;;;;;;12.52;8.82;;;;;;;8.74;65.81;100213.72;5024801;28;20076;-79
2021/05/06 10:16:10;;;;;;;11.38;8.45;;;;;;;8.91;66.66;100229.81;5048429;28;20523;-79
2021/05/06 10:18:39;;;;;;;11.73;8.73;;;;;;;9.03;65.41;100220.44;5036429;28;20128;-79
2021/05/06 10:21:06;;;;;;;13.00;9.32;;;;;;;8.96;64.21;100222.94;5024845;28;20099;-79
2021/05/06 10:23:31;;;;;;;11.82;10.20;;;;;;;8.85;68.22;100225.97;5021005;28;20045;-79
2021/05/06 10:25:58;;;;;;;11.55;9.98;;;;;;;9.01;69.03;100222.47;5025006;28;20049;-79
2021/05/06 10:28:25;;;;;;;9.18;7.32;;;;;;;8.84;63.76;100218.13;5029075;28;20042;-79
2021/05/06 10:30:51;;;;;;;9.18;7.68;;;;;;;8.86;64.62;100222.31;5032321;28;20128;-79
2021/05/06 10:33:23;;;;;;;9.55;8.18;;;;;;;8.90;65.45;100207.56;5027943;28;20042;-79
2021/05/06 10:35:49;;;;;;;12.18;8.05;;;;;;;8.80;63.95;100207.75;5035107;28;20076;-79
2021/05/06 10:38:15;;;;;;;12.07;8.70;;;;;;;8.87;64.62;100213.25;5029456;28;20065;-79
2021/05/06 10:40:41;;;;;;;11.20;8.50;;;;;;;8.72;65.48;100210.41;5029636;28;20515;-79
2021/05/06 10:43:20;;;;;;;9.82;8.75;;;;;;;8.87;66.50;100201.72;5026437;28;20044;-79
2021/05/06 10:45:58;;;;;;;12.30;9.02;;;;;;;8.90;67.16;100202.22;5025185;28;20049;-79
2021/05/06 10:48:24;;;;;;;11.05;8.10;;;;;;;8.89;65.08;100205.91;5041902;28;20042;-79
2021/05/06 10:50:51;;;;;;;11.23;8.32;;;;;;;8.94;64.20;100206.22;5031353;28;20144;-79
2021/05/06 10:53:27;;;;;;;10.77;9.23;;;;;;;9.12;66.26;100194.50;5030873;28;20030;-79
2021/05/06 10:55:56;;;;;;;12.38;9.18;;;;;;;9.18;65.01;100193.84;5024506;28;20088;-79
2021/05/06 10:58:27;;;;;;;11.43;9.60;;;;;;;9.16;65.03;100187.81;5033885;28;20063;-79
2021/05/06 11:01:02;;;;;;;11.45;9.20;;;;;;;9.09;64.21;100193.03;5023328;28;20111;-79
2021/05/06 11:03:28;;;;;;;9.80;8.32;;;;;;;9.21;66.54;100177.44;5045830;28;20635;-79
2021/05/06 11:05:54;;;;;;;11.10;7.13;;;;;;;9.23;63.11;100170.88;5034092;28;20503;-79
2021/05/06 11:08:22;;;;;;;7.10;6.40;;;;;;;9.41;62.98;100169.84;5044873;28;20049;-79
2021/05/06 11:10:48;;;;;;;8.50;7.60;;;;;;;9.53;62.75;100165.78;5045638;28;20091;-79
2021/05/06 11:13:16;;;;;;;10.32;8.00;;;;;;;9.69;63.87;100165.72;5027201;28;20520;-79
2021/05/06 11:15:42;;;;;;;8.85;7.75;;;;;;;9.79;63.68;100164.69;5025440;28;20470;-79
2021/05/06 11:18:31;;;;;;;8.85;7.95;;;;;;;10.03;64.95;100167.25;5007026;28;20041;-79
2021/05/06 11:20:58;;;;;;;;;;;;;;;10.07;61.74;100162.34;5023118;28;20052;-79
2021/05/06 11:23:25;;;;;;;9.38;8.32;;;;;;;9.94;63.13;100153.03;5028365;28;19955;-79
2021/05/06 11:25:53;;;;;;;9.82;8.23;;;;;;;9.91;61.79;100152.56;4997431;28;20050;-79
2021/05/06 11:28:18;;;;;;;12.43;9.13;;;;;;;9.92;63.72;100146.19;5028497;28;20060;-79
2021/05/06 11:30:43;;;;;;;10.88;8.68;;;;;;;9.85;63.05;100150.59;5024039;28;20045;-79
2021/05/06 11:33:21;;;;;;;9.95;8.38;;;;;;;9.95;64.61;100145.84;5032183;28;20115;-79
2021/05/06 11:36:09;;;;;;;10.80;8.60;;;;;;;9.94;64.15;100136.13;5027392;28;20064;-80
2021/05/06 11:38:34;;;;;;;9.20;7.68;;;;;;;9.85;62.67;100131.84;5006758;28;20140;-79
2021/05/06 11:41:00;;;;;;;8.30;7.00;;;;;;;9.65;58.66;100137.63;5057666;28;20128;-79
2021/05/06 11:43:26;;;;;;;11.60;8.50;;;;;;;9.64;62.64;100133.28;5036188;28;20052;-79
2021/05/06 11:46:09;;;;;;;8.80;7.10;;;;;;;9.88;58.99;100118.91;5021891;28;20116;-79
2021/05/06 11:48:40;;;;;;;8.27;7.28;;;;;;;9.84;59.11;100114.06;5034075;28;20535;-79
2021/05/06 11:51:07;;;;;;;9.77;7.72;;;;;;;10.08;61.51;100116.63;5023895;28;20068;-79
2021/05/06 11:53:38;;;;;;;10.40;7.50;;;;;;;10.31;61.05;100121.19;5020907;28;20048;-79
2021/05/06 11:56:10;;;;;;;9.65;6.93;;;;;;;10.28;59.60;100116.19;5011484;28;20069;-79
2021/05/06 11:58:39;;;;;;;9.35;6.90;;;;;;;10.36;57.82;100125.00;5026096;28;20030;-79
2021/05/06 12:01:04;;;;;;;10.43;6.60;;;;;;;10.14;56.55;100120.44;5024106;28;20094;-79
2021/05/06 12:03:35;;;;;;;8.60;6.75;;;;;;;10.08;57.41;100116.63;5029408;28;20037;-79
2021/05/06 12:06:01;;;;;;;7.20;6.15;;;;;;;10.00;58.55;100113.16;5030193;28;20552;-79
2021/05/06 12:08:30;;;;;;;8.35;6.85;;;;;;;10.13;59.18;100114.25;5032183;28;20115;-79
2021/05/06 12:10:58;;;;;;;9.75;7.35;;;;;;;10.26;57.53;100097.56;5048921;28;20398;-79
2021/05/06 12:13:31;;;;;;;8.88;7.55;;;;;;;10.33;60.23;100087.00;5032709;28;20876;-79
2021/05/06 12:16:15;;;;;;;10.07;7.47;;;;;;;10.31;57.55;100094.38;5042381;28;20478;-79
2021/05/06 12:18:41;;;;;;;8.98;6.55;;;;;;;10.60;56.41;100094.44;5009346;28;20041;-79
2021/05/06 12:21:08;;;;;;;8.70;6.25;;;;;;;10.66;56.97;100098.25;5024505;28;20045;-79
2021/05/06 12:23:35;;;;;;;8.43;7.13;;;;;;;10.90;56.11;100091.81;5036656;28;20047;-79
2021/05/06 12:26:01;;;;;;;7.35;6.25;;;;;;;10.96;55.64;100076.81;5045215;28;20160;-79
2021/05/06 12:28:27;;;;;;;8.57;6.90;;;;;;;11.07;54.55;100079.88;5042386;28;20052;-79
2021/05/06 12:31:00;;;;;;;9.13;6.60;;;;;;;11.12;57.09;100078.50;5046038;28;20032;-79
2021/05/06 12:33:30;;;;;;;9.18;7.00;;;;;;;11.05;54.53;100078.44;5037479;28;20044;-80
2021/05/06 12:35:56;;;;;;;10.05;7.22;;;;;;;11.10;56.90;100072.50;5041754;28;20037;-79
2021/05/06 12:38:21;;;;;;;9.88;7.20;;;;;;;11.29;56.31;100077.31;5046179;28;20457;-79
2021/05/06 12:40:47;;;;;;;10.32;7.35;;;;;;;11.29;55.42;100066.56;5045629;28;20167;-79
2021/05/06 12:43:27;;;;;;;8.95;6.97;;;;;;;11.33;55.82;100072.38;5043448;28;20041;-79
2021/05/06 12:46:09;;;;;;;9.40;7.40;;;;;;;11.20;55.30;100071.19;5040062;28;20030;-77
2021/05/06 12:48:35;;;;;;;8.25;6.00;;;;;;;11.38;53.62;100069.97;5029633;28;20469;-77
2021/05/06 12:51:04;;;;;;;8.68;6.60;;;;;;;11.60;56.58;100068.19;5028938;28;20073;-77
2021/05/06 12:53:30;;;;;;;10.02;6.88;;;;;;;11.60;54.97;100065.50;5020949;28;20069;-77
2021/05/06 12:55:55;;;;;;;8.60;6.55;;;;;;;11.51;55.77;100064.78;5034068;28;20033;-77
2021/05/06 12:58:27;;;;;;;10.18;7.07;;;;;;;11.54;57.76;100053.66;5030183;28;20052;-77
2021/05/06 13:00:52;;;;;;;8.32;6.40;;;;;;;11.26;54.84;100053.50;5044485;28;20112;-77
2021/05/06 13:03:25;;;;;;;9.23;6.82;;;;;;;11.29;57.08;100055.81;5036202;28;20136;-77
2021/05/06 13:05:51;;;;;;;8.23;6.30;;;;;;;11.47;58.66;100048.19;5032813;28;20397;-79
2021/05/06 13:08:17;;;;;;;8.75;7.63;;;;;;;11.43;56.62;100051.44;5027065;28;20045;-79
2021/05/06 13:10:45;;;;;;;8.77;7.28;;;;;;;11.42;54.72;100056.00;5019144;28;20673;-79
2021/05/06 13:13:32;;;;;;;10.50;7.07;;;;;;;11.30;53.70;100062.84;5042373;28;20069;-79
2021/05/06 13:15:57;;;;;;;9.52;7.32;;;;;;;11.12;53.51;100059.72;5019492;28;20049;-79
2021/05/06 13:18:22;;;;;;;8.40;6.55;;;;;;;10.96;52.99;100060.72;5026681;28;20045;-79
2021/05/06 13:20:48;;;;;;;9.02;6.82;;;;;;;10.95;54.97;100049.16;5027137;28;20760;-79
2021/05/06 13:23:16;;;;;;;8.25;6.95;;;;;;;10.91;54.78;100057.78;5024449;28;20049;-77
2021/05/06 13:25:42;;;;;;;9.45;6.88;;;;;;;10.74;55.31;100062.47;5035493;28;20076;-77
2021/05/06 13:28:14;;;;;;;10.02;7.20;;;;;;;10.60;56.33;100062.25;5026772;28;20037;-79
2021/05/06 13:30:40;;;;;;;9.25;7.03;;;;;;;10.34;58.19;100067.19;5029038;28;20045;-79
2021/05/06 13:33:14;;;;;;;9.02;6.25;;;;;;;9.96;58.83;100064.44;5021009;28;20045;-79
2021/05/06 13:35:40;;;;;;;8.45;6.68;;;;;;;9.74;60.26;100062.56;5028376;28;20048;-79
2021/05/06 13:38:06;;;;;;;8.35;6.30;;;;;;;9.72;60.46;100062.72;5023445;28;20389;-79
2021/05/06 13:40:31;;;;;;;8.30;6.22;;;;;;;9.76;58.86;100055.19;5009469;28;20038;-77
2021/05/06 13:42:56;;;;;;;7.93;6.05;;;;;;;9.96;57.67;100053.72;5024934;28;20609;-77
2021/05/06 13:45:22;;;;;;;7.30;5.90;;;;;;;10.21;58.64;100050.84;5020757;28;20132;-77
2021/05/06 13:47:48;;;;;;;6.25;5.18;;;;;;;10.12;57.00;100042.84;5021728;28;20111;-77
2021/05/06 13:50:17;;;;;;;6.22;4.88;;;;;;;10.35;58.19;100036.66;5035398;28;20029;-77
2021/05/06 13:52:44;;;;;;;6.13;4.45;;;;;;;10.36;56.38;100033.81;5028299;28;20064;-77
2021/05/06 13:55:10;;;;;;;5.88;4.40;;;;;;;10.45;55.49;100031.06;5032318;28;20040;-77
2021/05/06 13:57:37;;;;;;;6.68;4.85;;;;;;;10.46;57.69;100028.19;5034514;28;20091;-78
2021/05/06 14:00:03;;;;;;;6.00;4.25;;;;;;;10.44;55.53;100024.84;5041202;28;20045;-78
2021/05/06 14:02:29;;;;;;;5.22;4.57;;;;;;;10.59;58.28;100024.91;5032401;28;20048;-78
2021/05/06 14:04:54;;;;;;;5.75;4.40;;;;;;;10.63;57.97;100022.66;5030151;28;20079;-78
2021/05/06 14:07:20;;;;;;;5.25;4.50;;;;;;;10.61;56.73;100012.09;5047564;28;20471;-78
2021/05/06 14:09:45;;;;;;;6.30;5.05;;;;;;;10.49;57.53;100019.78;5037426;28;20045;-78
2021/05/06 14:12:11;;;;;;;5.78;4.57;;;;;;;10.65;59.26;100015.28;5038456;28;20053;-78
2021/05/06 14:14:36;;;;;;;6.20;4.85;;;;;;;10.51;55.65;100016.94;5030185;28;20321;-78
2021/05/06 14:17:02;;;;;;;6.95;4.63;;;;;;;10.36;54.21;100007.00;5046313;28;20040;-78
2021/05/06 14:19:27;;;;;;;8.23;6.53;;;;;;;10.41;56.89;100009.13;5029949;28;20041;-78
2021/05/06 14:21:54;;;;;;;6.57;5.80;;;;;;;10.70;56.85;100007.50;5021487;28;20103;-78
2021/05/06 14:24:20;;;;;;;6.05;5.03;;;;;;;10.70;55.39;100002.94;5019583;28;20124;-78
2021/05/06 14:26:48;;;;;;;6.97;5.93;;;;;;;10.82;58.06;99998.00;5049855;28;20446;-78
2021/05/06 14:29:15;;;;;;;7.20;6.50;;;;;;;11.12;57.83;99989.91;5048564;28;20138;-78
2021/05/06 14:31:41;;;;;;;7.95;6.72;;;;;;;11.46;58.81;99987.44;5050048;28;20056;-78
2021/05/06 14:34:06;;;;;;;7.82;6.43;;;;;;;11.73;56.93;99991.22;5045655;28;20041;-78
2021/05/06 14:36:33;;;;;;;8.00;6.45;;;;;;;11.82;57.19;99983.84;5044967;28;20045;-78
2021/05/06 14:39:02;;;;;;;7.68;6.22;;;;;;;11.90;58.07;99980.25;5036188;28;20033;-78
2021/05/06 14:41:27;;;;;;;8.00;6.45;;;;;;;12.09;55.57;99987.66;5034763;28;20359;-78
2021/05/06 14:43:53;;;;;;;7.40;6.30;;;;;;;12.00;53.29;99979.91;5011039;28;20045;-78
2021/05/06 14:46:21;;;;;;;7.00;6.30;;;;;;;11.81;55.04;99982.19;5026322;28;20041;-78
2021/05/06 14:48:46;;;;;;;7.20;6.03;;;;;;;11.98;53.23;99972.06;5027878;28;20052;-78
2021/05/06 14:51:12;;;;;;;7.75;5.85;;;;;;;12.04;52.59;99962.38;5022589;28;20088;-78
2021/05/06 14:53:37;;;;;;;6.95;5.95;;;;;;;12.13;56.17;99962.03;5029839;28;20389;-78
2021/05/06 14:56:03;;;;;;;7.82;5.55;;;;;;;11.83;49.93;99966.72;5031825;28;20045;-78
2021/05/06 14:58:30;;;;;;;5.95;4.95;;;;;;;11.71;50.29;99957.53;5040595;28;20049;-78
2021/05/06 15:00:57;;;;;;;5.82;4.68;;;;;;;11.79;53.77;99965.44;5028957;28;20052;-78
2021/05/06 15:03:22;;;;;;;6.78;5.82;;;;;;;11.93;54.17;99964.56;5044251;28;20046;-78
2021/05/06 15:05:48;;;;;;;6.55;5.53;;;;;;;11.93;54.11;99956.50;5024966;28;20045;-78